createdAt,value
2019-05-11T00:00:30.729Z,9.60
2019-05-11T00:02:59.132Z,9.60
2019-05-11T00:05:27.538Z,9.70
2019-05-11T00:07:55.930Z,9.80
2019-05-11T00:10:24.316Z,9.80
2019-05-11T00:12:52.725Z,9.70
2019-05-11T00:15:21.113Z,9.70
2019-05-11T00:17:49.524Z,9.60
2019-05-11T00:20:17.935Z,9.60
2019-05-11T00:22:46.311Z,9.60
2019-05-11T00:25:14.772Z,9.60
2019-05-11T00:27:43.157Z,9.60
2019-05-11T00:30:11.690Z,9.50
2019-05-11T00:32:40.077Z,9.60
2019-05-11T00:35:09.297Z,9.60
2019-05-11T00:37:37.778Z,9.60
2019-05-11T00:40:14.511Z,9.60
2019-05-11T00:42:37.136Z,9.60
2019-05-11T00:45:07.392Z,9.60
2019-05-11T00:47:35.796Z,9.60
2019-05-11T00:50:08.129Z,9.60
2019-05-11T00:52:36.523Z,9.60
2019-05-11T00:55:07.157Z,9.50
2019-05-11T00:57:35.545Z,9.50
2019-05-11T01:00:05.553Z,9.50
2019-05-11T01:02:33.955Z,9.60
2019-05-11T01:05:02.340Z,9.60
2019-05-11T01:07:30.837Z,9.50
2019-05-11T01:09:59.283Z,9.50
2019-05-11T01:12:27.667Z,9.40
2019-05-11T01:14:56.060Z,9.40
2019-05-11T01:17:24.480Z,9.40
2019-05-11T01:19:52.856Z,9.50
2019-05-11T01:22:21.244Z,9.60
2019-05-11T01:24:49.641Z,9.70
2019-05-11T01:27:18.038Z,9.70
2019-05-11T01:29:46.433Z,9.70
2019-05-11T01:32:14.831Z,9.80
2019-05-11T01:34:43.224Z,9.90
2019-05-11T01:37:11.623Z,9.80
2019-05-11T01:39:40.009Z,9.60
2019-05-11T01:42:08.403Z,9.60
2019-05-11T01:44:36.799Z,9.50
2019-05-11T01:47:05.197Z,9.50
2019-05-11T01:49:34.409Z,9.60
2019-05-11T01:52:02.825Z,9.60
2019-05-11T01:54:31.220Z,9.70
2019-05-11T01:56:59.612Z,9.80
2019-05-11T01:59:28.018Z,9.70
2019-05-11T02:01:56.419Z,9.80
2019-05-11T02:04:24.822Z,9.80
2019-05-11T02:06:53.210Z,9.80
2019-05-11T02:09:21.778Z,9.70
2019-05-11T02:11:50.177Z,9.70
2019-05-11T02:14:18.563Z,9.60
2019-05-11T02:16:47.218Z,9.60
2019-05-11T02:19:15.594Z,9.60
2019-05-11T02:21:43.993Z,9.50
2019-05-11T02:24:12.406Z,9.40
2019-05-11T02:26:40.793Z,9.40
2019-05-11T02:29:09.203Z,9.40
2019-05-11T02:31:37.590Z,9.30
2019-05-11T02:34:05.984Z,9.30
2019-05-11T02:36:34.392Z,9.30
2019-05-11T02:39:04.653Z,9.30
2019-05-11T02:41:37.028Z,9.30
2019-05-11T02:44:05.810Z,9.40
2019-05-11T02:46:34.218Z,9.30
2019-05-11T02:49:02.606Z,9.30
2019-05-11T02:51:30.997Z,9.30
2019-05-11T02:54:01.922Z,9.30
2019-05-11T02:56:30.310Z,9.20
2019-05-11T02:58:59.021Z,9.20
2019-05-11T03:01:27.411Z,9.20
2019-05-11T03:03:56.173Z,9.20
2019-05-11T03:06:24.572Z,9.20
2019-05-11T03:08:52.950Z,9.10
2019-05-11T03:11:21.469Z,9.10
2019-05-11T03:13:49.919Z,9.10
2019-05-11T03:16:18.353Z,9.10
2019-05-11T03:18:46.794Z,9.10
2019-05-11T03:21:15.180Z,9.10
2019-05-11T03:23:43.589Z,9.10
2019-05-11T03:26:11.983Z,9.10
2019-05-11T03:28:40.383Z,9.10
2019-05-11T03:31:08.882Z,9.10
2019-05-11T03:33:37.279Z,9.00
2019-05-11T03:36:05.670Z,9.00
2019-05-11T03:38:34.062Z,9.00
2019-05-11T03:41:02.467Z,9.00
2019-05-11T03:43:31.120Z,8.90
2019-05-11T03:45:59.527Z,9.00
2019-05-11T03:48:27.916Z,8.90
2019-05-11T03:50:56.316Z,8.90
2019-05-11T03:53:24.713Z,8.90
2019-05-11T03:55:53.106Z,8.90
2019-05-11T03:58:25.489Z,8.90
2019-05-11T04:00:51.722Z,8.90
2019-05-11T04:03:20.090Z,8.90
2019-05-11T04:05:48.477Z,8.90
2019-05-11T04:08:16.899Z,8.90
2019-05-11T04:10:45.293Z,8.90
2019-05-11T04:13:13.757Z,8.90
2019-05-11T04:15:42.151Z,8.90
2019-05-11T04:18:10.540Z,8.80
2019-05-11T04:20:39.184Z,8.80
2019-05-11T04:23:07.587Z,8.80
2019-05-11T04:25:35.985Z,8.80
2019-05-11T04:28:04.386Z,8.80
2019-05-11T04:30:33.036Z,8.80
2019-05-11T04:33:01.434Z,8.70
2019-05-11T04:35:29.820Z,8.70
2019-05-11T04:37:58.229Z,8.70
2019-05-11T04:40:26.631Z,8.70
2019-05-11T04:42:56.303Z,8.70
2019-05-11T04:45:25.166Z,8.70
2019-05-11T04:47:53.545Z,8.70
2019-05-11T04:50:21.946Z,8.70
2019-05-11T04:52:50.331Z,8.70
2019-05-11T04:55:18.721Z,8.70
2019-05-11T04:57:47.135Z,8.70
2019-05-11T05:00:17.555Z,8.80
2019-05-11T05:02:46.137Z,8.80
2019-05-11T05:05:15.142Z,8.80
2019-05-11T05:07:48.856Z,8.90
2019-05-11T05:10:20.106Z,9.00
2019-05-11T05:12:50.399Z,9.00
2019-05-11T05:15:14.729Z,9.10
2019-05-11T05:17:43.117Z,9.20
2019-05-11T05:20:12.672Z,9.30
2019-05-11T05:22:41.053Z,9.30
2019-05-11T05:25:09.448Z,9.40
2019-05-11T05:27:38.600Z,9.40
2019-05-11T05:30:08.139Z,9.50
2019-05-11T05:32:37.292Z,9.50
2019-05-11T05:35:09.397Z,9.60
2019-05-11T05:37:37.789Z,9.60
2019-05-11T05:40:07.021Z,9.50
2019-05-11T05:42:35.408Z,9.50
2019-05-11T05:45:07.853Z,9.40
2019-05-11T05:47:36.305Z,9.40
2019-05-11T05:50:06.612Z,9.50
2019-05-11T05:52:35.019Z,9.50
2019-05-11T05:55:05.162Z,9.50
2019-05-11T05:57:33.558Z,9.50
2019-05-11T06:00:01.947Z,9.50
2019-05-11T06:02:30.422Z,9.50
2019-05-11T06:04:58.825Z,9.40
2019-05-11T06:07:27.220Z,9.40
2019-05-11T06:09:55.700Z,9.50
2019-05-11T06:12:24.092Z,9.50
2019-05-11T06:14:52.493Z,9.50
2019-05-11T06:17:20.904Z,9.50
2019-05-11T06:19:49.301Z,9.50
2019-05-11T06:22:17.696Z,9.50
2019-05-11T06:24:46.116Z,9.50
2019-05-11T06:27:14.509Z,9.50
2019-05-11T06:29:42.916Z,9.50
2019-05-11T06:32:11.393Z,9.60
2019-05-11T06:34:39.794Z,9.60
2019-05-11T06:37:08.186Z,9.70
2019-05-11T06:39:36.762Z,9.80
2019-05-11T06:42:05.218Z,9.80
2019-05-11T06:44:33.629Z,9.80
2019-05-11T06:47:02.131Z,9.80
2019-05-11T06:49:30.557Z,9.90
2019-05-11T06:52:00.873Z,9.90
2019-05-11T06:54:29.284Z,10.00
2019-05-11T06:56:57.705Z,10.00
2019-05-11T06:59:26.181Z,10.00
2019-05-11T07:01:54.735Z,10.00
2019-05-11T07:04:23.149Z,9.90
2019-05-11T07:06:51.796Z,9.90
2019-05-11T07:09:20.330Z,9.90
2019-05-11T07:11:48.706Z,9.90
2019-05-11T07:14:21.105Z,9.90
2019-05-11T07:16:47.622Z,9.90
2019-05-11T07:19:16.086Z,10.10
2019-05-11T07:21:44.482Z,10.20
2019-05-11T07:24:12.900Z,10.30
2019-05-11T07:26:41.423Z,10.40
2019-05-11T07:29:09.890Z,10.60
2019-05-11T07:31:39.722Z,10.70
2019-05-11T07:34:08.451Z,10.80
2019-05-11T07:36:38.848Z,10.80
2019-05-11T07:39:08.276Z,10.70
2019-05-11T07:41:38.699Z,10.80
2019-05-11T07:44:09.793Z,10.80
2019-05-11T07:46:37.871Z,10.90
2019-05-11T07:49:08.608Z,11.00
2019-05-11T07:51:38.751Z,11.10
2019-05-11T07:54:08.469Z,11.30
2019-05-11T07:56:39.084Z,11.50
2019-05-11T07:59:07.982Z,11.90
2019-05-11T08:01:38.692Z,12.10
2019-05-11T08:04:07.842Z,12.40
2019-05-11T08:06:38.912Z,12.70
2019-05-11T08:09:08.339Z,13.00
2019-05-11T08:11:38.863Z,13.10
2019-05-11T08:14:07.845Z,13.40
2019-05-11T08:16:39.069Z,13.60
2019-05-11T08:19:10.427Z,13.60
2019-05-11T08:21:38.821Z,13.70
2019-05-11T08:24:09.186Z,13.80
2019-05-11T08:26:38.624Z,14.10
2019-05-11T08:29:08.104Z,14.00
2019-05-11T08:31:38.418Z,13.90
2019-05-11T08:34:08.833Z,13.90
2019-05-11T08:36:37.903Z,14.10
2019-05-11T08:39:07.949Z,14.20
2019-05-11T08:41:38.421Z,14.20
2019-05-11T08:44:08.975Z,14.30
2019-05-11T08:46:38.587Z,14.10
2019-05-11T08:49:08.644Z,14.00
2019-05-11T08:51:38.672Z,14.10
2019-05-11T08:54:09.036Z,14.30
2019-05-11T08:56:38.255Z,14.80
2019-05-11T08:59:08.189Z,15.10
2019-05-11T09:01:39.232Z,15.50
2019-05-11T09:04:08.890Z,15.60
2019-05-11T09:06:37.864Z,15.50
2019-05-11T09:09:08.968Z,15.20
2019-05-11T09:11:38.948Z,16.00
2019-05-11T09:14:08.493Z,17.40
2019-05-11T09:16:38.385Z,18.20
2019-05-11T09:19:08.776Z,18.90
2019-05-11T09:21:38.467Z,19.10
2019-05-11T09:24:08.474Z,18.90
2019-05-11T09:26:39.082Z,19.00
2019-05-11T09:29:08.668Z,19.10
2019-05-11T09:31:38.297Z,19.00
2019-05-11T09:34:08.987Z,19.00
2019-05-11T09:36:38.935Z,19.00
2019-05-11T09:39:09.446Z,19.30
2019-05-11T09:41:38.435Z,19.30
2019-05-11T09:44:08.928Z,19.20
2019-05-11T09:46:38.438Z,19.30
2019-05-11T09:49:08.120Z,20.40
2019-05-11T09:51:38.836Z,21.20
2019-05-11T09:54:08.136Z,21.10
2019-05-11T09:56:38.227Z,21.70
2019-05-11T09:59:08.767Z,22.50
2019-05-11T10:01:37.805Z,22.70
2019-05-11T10:04:08.957Z,22.80
2019-05-11T10:06:39.076Z,22.30
2019-05-11T10:09:08.476Z,22.80
2019-05-11T10:11:36.902Z,23.70
2019-05-11T10:14:05.312Z,23.00
2019-05-11T10:16:33.706Z,21.80
2019-05-11T10:19:02.104Z,21.60
2019-05-11T10:21:30.497Z,22.50
2019-05-11T10:23:58.898Z,24.00
2019-05-11T10:26:27.894Z,23.70
2019-05-11T10:28:58.499Z,22.20
2019-05-11T10:31:28.716Z,21.10
2019-05-11T10:34:17.927Z,21.50
2019-05-11T10:36:48.693Z,21.10
2019-05-11T10:39:18.655Z,22.10
2019-05-11T10:41:47.967Z,22.30
2019-05-11T10:44:18.790Z,21.70
2019-05-11T10:46:48.342Z,21.50
2019-05-11T10:49:18.474Z,22.40
2019-05-11T10:51:48.632Z,23.60
2019-05-11T10:54:18.711Z,23.00
2019-05-11T10:56:48.216Z,21.40
2019-05-11T10:59:18.816Z,20.20
2019-05-11T11:01:48.393Z,19.00
2019-05-11T11:04:18.418Z,18.00
2019-05-11T11:06:48.514Z,17.50
2019-05-11T11:09:17.861Z,17.10
2019-05-11T11:11:48.821Z,17.10
2019-05-11T11:14:18.150Z,18.60
2019-05-11T11:16:47.868Z,19.30
2019-05-11T11:19:18.327Z,18.90
2019-05-11T11:21:48.792Z,20.00
2019-05-11T11:24:18.042Z,19.70
2019-05-11T11:26:48.640Z,18.80
2019-05-11T11:29:17.874Z,17.90
2019-05-11T11:31:48.151Z,17.10
2019-05-11T11:34:18.811Z,16.80
2019-05-11T11:36:48.158Z,17.00
2019-05-11T11:39:18.681Z,17.80
2019-05-11T11:41:48.560Z,18.60
2019-05-11T11:44:18.497Z,18.40
2019-05-11T11:46:54.625Z,17.70
2019-05-11T11:49:18.781Z,17.00
2019-05-11T11:51:48.427Z,16.60
2019-05-11T11:54:18.209Z,16.70
2019-05-11T11:56:48.520Z,17.30
2019-05-11T11:59:17.922Z,19.20
2019-05-11T12:01:48.799Z,21.50
2019-05-11T12:04:18.647Z,23.50
2019-05-11T12:06:48.834Z,25.00
2019-05-11T12:09:18.168Z,25.40
2019-05-11T12:11:48.620Z,25.10
2019-05-11T12:14:18.670Z,24.10
2019-05-11T12:16:47.950Z,22.90
2019-05-11T12:19:18.752Z,21.70
2019-05-11T12:21:48.408Z,20.60
2019-05-11T12:24:23.314Z,19.80
2019-05-11T12:26:51.712Z,19.10
2019-05-11T12:29:20.107Z,18.30
2019-05-11T12:31:48.674Z,17.70
2019-05-11T12:34:18.031Z,16.90
2019-05-11T12:36:47.997Z,16.40
2019-05-11T12:39:19.134Z,16.10
2019-05-11T12:41:47.979Z,16.20
2019-05-11T12:44:18.771Z,16.50
2019-05-11T12:46:48.844Z,16.90
2019-05-11T12:49:18.645Z,17.10
2019-05-11T12:51:48.781Z,17.50
2019-05-11T12:54:18.719Z,18.50
2019-05-11T12:56:48.911Z,19.00
2019-05-11T12:59:18.807Z,19.40
2019-05-11T13:01:48.583Z,20.30
2019-05-11T13:04:18.195Z,21.60
2019-05-11T13:06:47.964Z,22.50
2019-05-11T13:09:18.359Z,21.90
2019-05-11T13:11:48.242Z,20.90
2019-05-11T13:14:18.518Z,19.90
2019-05-11T13:16:48.352Z,19.10
2019-05-11T13:19:17.668Z,18.60
2019-05-11T13:21:48.703Z,18.80
2019-05-11T13:24:18.735Z,19.90
2019-05-11T13:26:48.508Z,20.50
2019-05-11T13:29:18.107Z,21.00
2019-05-11T13:31:48.612Z,21.40
2019-05-11T13:34:17.862Z,22.30
2019-05-11T13:36:48.751Z,22.90
2019-05-11T13:39:18.100Z,23.90
2019-05-11T13:41:47.643Z,25.20
2019-05-11T13:44:18.379Z,26.10
2019-05-11T13:46:48.144Z,26.80
2019-05-11T13:49:17.924Z,27.00
2019-05-11T13:51:48.103Z,25.80
2019-05-11T13:54:18.534Z,24.20
2019-05-11T13:56:48.388Z,22.60
2019-05-11T13:59:18.827Z,21.00
2019-05-11T14:01:47.832Z,20.10
2019-05-11T14:04:18.146Z,20.10
2019-05-11T14:06:48.160Z,20.60
2019-05-11T14:09:18.386Z,20.70
2019-05-11T14:11:47.845Z,21.00
2019-05-11T14:14:18.341Z,21.70
2019-05-11T14:16:48.519Z,22.70
2019-05-11T14:19:17.942Z,23.80
2019-05-11T14:21:48.976Z,24.80
2019-05-11T14:24:18.342Z,25.70
2019-05-11T14:26:48.842Z,26.50
2019-05-11T14:29:17.969Z,26.90
2019-05-11T14:31:48.837Z,27.50
2019-05-11T14:34:18.166Z,28.00
2019-05-11T14:37:05.194Z,28.50
2019-05-11T14:42:22.116Z,26.90
2019-05-11T14:44:49.956Z,26.60
2019-05-11T15:13:08.053Z,25.10
2019-05-11T15:15:39.229Z,24.90
2019-05-11T15:18:08.477Z,25.30
2019-05-11T15:20:38.784Z,25.60
2019-05-11T15:23:08.905Z,25.90
2019-05-11T15:25:38.185Z,26.10
2019-05-11T15:28:08.854Z,26.20
2019-05-11T15:30:38.032Z,26.00
2019-05-11T15:33:07.719Z,26.10
2019-05-11T15:35:37.715Z,26.40
2019-05-11T15:38:08.765Z,26.30
2019-05-11T15:40:38.251Z,26.30
2019-05-11T15:43:08.815Z,26.60
2019-05-11T15:45:38.122Z,26.80
2019-05-11T15:48:08.482Z,26.20
2019-05-11T15:50:39.923Z,25.40
2019-05-11T15:53:08.741Z,24.60
2019-05-11T15:55:39.381Z,24.40
2019-05-11T15:58:07.928Z,24.50
2019-05-11T16:00:39.729Z,24.50
2019-05-11T16:03:08.238Z,24.20
2019-05-11T16:05:36.548Z,24.20
2019-05-11T16:08:04.941Z,24.30
2019-05-11T16:10:33.333Z,24.20
2019-05-11T16:13:01.730Z,24.10
2019-05-11T16:15:30.212Z,23.80
2019-05-11T16:17:58.609Z,23.20
2019-05-11T16:20:28.542Z,22.50
2019-05-11T16:22:57.145Z,21.60
2019-05-11T16:25:27.527Z,20.70
2019-05-11T16:27:55.792Z,19.90
2019-05-11T16:30:24.192Z,19.50
2019-05-11T16:32:52.657Z,19.00
2019-05-11T16:35:21.103Z,18.60
2019-05-11T16:37:49.501Z,18.20
2019-05-11T16:40:20.704Z,18.00
2019-05-11T16:42:48.985Z,17.70
2019-05-11T16:45:18.974Z,17.30
2019-05-11T16:47:48.221Z,17.00
2019-05-11T16:50:18.080Z,16.60
2019-05-11T16:52:48.530Z,16.10
2019-05-11T16:55:18.334Z,15.90
2019-05-11T16:57:48.489Z,15.60
2019-05-11T17:00:18.869Z,15.50
2019-05-11T17:02:49.016Z,15.30
2019-05-11T17:05:25.861Z,15.30
2019-05-11T17:07:48.304Z,15.30
2019-05-11T17:10:18.066Z,15.30
2019-05-11T17:12:48.334Z,15.20
2019-05-11T17:15:18.602Z,15.10
2019-05-11T17:17:48.943Z,15.00
2019-05-11T17:20:19.632Z,14.90
2019-05-11T17:22:48.895Z,14.70
2019-05-11T17:25:19.316Z,14.40
2019-05-11T17:27:49.141Z,14.30
2019-05-11T17:30:20.332Z,14.20
2019-05-11T17:32:49.411Z,14.00
2019-05-11T17:35:18.679Z,13.90
2019-05-11T17:37:48.603Z,13.70
2019-05-11T17:40:22.258Z,13.60
2019-05-11T17:42:48.378Z,13.60
2019-05-11T17:45:19.038Z,13.60
2019-05-11T17:47:47.530Z,13.70
2019-05-11T17:50:16.056Z,13.80
2019-05-11T17:52:44.471Z,13.90
2019-05-11T17:55:12.990Z,14.10
2019-05-11T17:57:42.255Z,14.30
2019-05-11T18:00:12.220Z,14.40
2019-05-11T18:02:40.615Z,14.40
2019-05-11T18:05:09.325Z,14.30
2019-05-11T18:07:38.703Z,14.10
2019-05-11T18:10:09.211Z,13.90
2019-05-11T18:12:39.154Z,13.70
2019-05-11T18:15:09.439Z,13.60
2019-05-11T18:17:38.095Z,13.50
2019-05-11T18:20:16.804Z,13.40
2019-05-11T18:22:39.113Z,13.30
2019-05-11T18:25:13.796Z,13.30
2019-05-11T18:27:40.781Z,13.30
2019-05-11T18:30:10.317Z,13.10
2019-05-11T18:32:39.398Z,13.00
2019-05-11T18:35:09.733Z,12.90
2019-05-11T18:37:41.036Z,12.80
2019-05-11T18:40:09.489Z,12.70
2019-05-11T18:42:38.415Z,12.70
2019-05-11T18:45:08.325Z,12.60
2019-05-11T18:47:38.211Z,12.50
2019-05-11T18:50:08.608Z,12.40
2019-05-11T18:52:37.007Z,12.30
2019-05-11T18:55:08.429Z,12.10
2019-05-11T18:57:38.400Z,11.90
2019-05-11T19:00:09.269Z,11.80
2019-05-11T19:02:38.499Z,11.70
2019-05-11T19:05:08.002Z,11.50
2019-05-11T19:07:39.377Z,11.40
2019-05-11T19:10:09.826Z,11.30
2019-05-11T19:12:38.289Z,11.20
2019-05-11T19:15:08.836Z,11.10
2019-05-11T19:17:38.590Z,11.00
2019-05-11T19:20:09.922Z,10.90
2019-05-11T19:22:38.753Z,10.90
2019-05-11T19:25:08.973Z,10.80
2019-05-11T19:27:38.173Z,10.80
2019-05-11T19:30:08.993Z,10.70
2019-05-11T19:32:38.404Z,10.60
2019-05-11T19:35:09.008Z,10.50
2019-05-11T19:37:38.948Z,10.40
2019-05-11T19:40:09.357Z,10.30
2019-05-11T19:42:54.821Z,10.20
2019-05-11T19:45:24.197Z,10.20
2019-05-11T19:47:52.582Z,10.20
2019-05-11T19:50:20.990Z,10.20
2019-05-11T19:52:49.376Z,10.10
2019-05-11T19:55:18.144Z,9.90
2019-05-11T19:57:48.277Z,9.80
2019-05-11T20:00:18.464Z,9.70
2019-05-11T20:02:47.670Z,9.70
2019-05-11T20:05:18.291Z,9.60
2019-05-11T20:07:48.616Z,9.60
2019-05-11T20:10:18.733Z,9.50
2019-05-11T20:12:48.283Z,9.50
2019-05-11T20:15:18.839Z,9.40
2019-05-11T20:17:48.724Z,9.40
2019-05-11T20:20:18.392Z,9.40
2019-05-11T20:22:48.276Z,9.40
2019-05-11T20:25:18.695Z,9.50
2019-05-11T20:27:48.381Z,9.50
2019-05-11T20:30:19.537Z,9.50
2019-05-11T20:32:49.184Z,9.50
2019-05-11T20:35:18.394Z,9.50
2019-05-11T20:37:46.826Z,9.50
2019-05-11T20:40:15.290Z,9.40
2019-05-11T20:42:43.697Z,9.30
2019-05-11T20:45:12.345Z,9.10
2019-05-11T20:47:40.872Z,9.00
2019-05-11T20:50:09.393Z,8.90
2019-05-11T20:52:39.689Z,8.80
2019-05-11T20:55:09.199Z,8.70
2019-05-11T20:57:39.388Z,8.60
2019-05-11T21:00:10.525Z,8.50
2019-05-11T21:02:38.916Z,8.40
2019-05-11T21:05:09.442Z,8.30
2019-05-11T21:07:38.790Z,8.20
2019-05-11T21:10:08.904Z,8.10
2019-05-11T21:12:38.923Z,8.00
2019-05-11T21:15:10.177Z,7.90
2019-05-11T21:17:38.570Z,7.80
2019-05-11T21:20:09.593Z,7.60
2019-05-11T21:22:40.464Z,7.50
2019-05-11T21:25:09.429Z,7.40
2019-05-11T21:27:38.448Z,7.40
2019-05-11T21:30:10.496Z,7.20
2019-05-11T21:32:40.337Z,7.00
2019-05-11T21:35:09.605Z,6.90
2019-05-11T21:37:38.972Z,6.70
2019-05-11T21:40:09.796Z,6.60
2019-05-11T21:42:38.883Z,6.50
2019-05-11T21:45:10.386Z,6.40
2019-05-11T21:47:39.470Z,6.40
2019-05-11T21:50:09.772Z,6.40
2019-05-11T21:52:39.141Z,6.50
2019-05-11T21:55:09.966Z,6.50
2019-05-11T21:57:38.526Z,6.50
2019-05-11T22:00:09.225Z,6.50
2019-05-11T22:02:38.687Z,6.40
2019-05-11T22:05:10.100Z,6.40
2019-05-11T22:07:41.783Z,6.20
2019-05-11T22:10:10.444Z,6.10
2019-05-11T22:12:39.465Z,6.10
2019-05-11T22:15:10.354Z,6.00
2019-05-11T22:17:39.919Z,6.00
2019-05-11T22:20:10.205Z,6.00
2019-05-11T22:22:39.189Z,5.90
2019-05-11T22:25:09.398Z,5.80
2019-05-11T22:27:38.820Z,5.80
2019-05-11T22:30:09.698Z,5.80
2019-05-11T22:32:38.552Z,5.80
2019-05-11T22:35:08.598Z,5.80
2019-05-11T22:37:38.755Z,5.70
2019-05-11T22:40:08.913Z,5.60
2019-05-11T22:42:39.156Z,5.50
2019-05-11T22:45:09.695Z,5.40
2019-05-11T22:47:39.434Z,5.40
2019-05-11T22:50:10.125Z,5.40
2019-05-11T22:52:40.436Z,5.30
2019-05-11T22:55:11.795Z,5.30
2019-05-11T22:57:40.238Z,5.40
2019-05-11T23:00:11.472Z,5.40
2019-05-11T23:02:39.905Z,5.40
2019-05-11T23:05:09.326Z,5.30
2019-05-11T23:07:41.624Z,5.30
2019-05-11T23:10:11.021Z,5.30
2019-05-11T23:12:39.401Z,5.30
2019-05-11T23:15:17.300Z,5.30
2019-05-11T23:17:45.686Z,5.20
2019-05-11T23:20:16.077Z,5.20
2019-05-11T23:22:56.923Z,5.10
2019-05-11T23:25:18.697Z,5.00
2019-05-11T23:27:48.519Z,5.00
2019-05-11T23:30:20.282Z,4.90
2019-05-11T23:32:49.883Z,4.90
2019-05-11T23:35:19.099Z,4.80
2019-05-11T23:37:49.540Z,4.80
2019-05-11T23:40:19.740Z,4.80
2019-05-11T23:42:49.423Z,4.70
2019-05-11T23:45:20.019Z,4.60
2019-05-11T23:47:49.046Z,4.60
2019-05-11T23:50:19.792Z,4.50
2019-05-11T23:53:05.118Z,4.40
2019-05-11T23:55:19.960Z,4.40
2019-05-11T23:57:49.365Z,4.30
